Time;durP1;ratioP1;P1;durP2;ratioP2;P2;SDS_P1;SDS_P2;PMS_P1;PMS_P2;Temp;Humidity;BMP_temperature;BMP_pressure;BME280_temperature;BME280_humidity;BME280_pressure;Samples;Min_cycle;Max_cycle;Signal;HPM_P1;HPM_P2
2022/07/30 00:01:35;;;;;;;0.30;0.30;;;;;;;;;;7393897;19;20153;-67
2022/07/30 00:04:00;;;;;;;0.30;0.30;;;;;;;;;;7393129;19;20482;-67
2022/07/30 00:06:26;;;;;;;0.30;0.30;;;;;;;;;;7394591;19;20129;-67
2022/07/30 00:08:51;;;;;;;0.30;0.30;;;;;;;;;;7394244;19;20138;-67
2022/07/30 00:11:16;;;;;;;0.40;0.40;;;;;;;;;;7393474;19;20159;-67
2022/07/30 00:13:41;;;;;;;0.20;0.20;;;;;;;;;;7390367;19;20148;-67
2022/07/30 00:16:07;;;;;;;0.55;0.55;;;;;;;;;;7393826;19;20117;-66
2022/07/30 00:18:32;;;;;;;0.30;0.30;;;;;;;;;;7391648;19;20168;-67
2022/07/30 00:20:58;;;;;;;0.30;0.30;;;;;;;;;;7392267;19;20589;-67
2022/07/30 00:23:23;;;;;;;1.35;0.38;;;;;;;;;;7392749;19;20121;-67
2022/07/30 00:25:48;;;;;;;0.38;0.38;;;;;;;;;;7391237;19;20133;-67
2022/07/30 00:28:13;;;;;;;0.47;0.47;;;;;;;;;;7394343;19;20575;-67
2022/07/30 00:30:39;;;;;;;0.30;0.30;;;;;;;;;;7394016;19;20136;-67
2022/07/30 00:33:05;;;;;;;0.30;0.30;;;;;;;;;;7390523;19;20197;-67
2022/07/30 00:35:30;;;;;;;0.32;0.32;;;;;;;;;;7392551;19;20130;-67
2022/07/30 00:37:55;;;;;;;0.40;0.40;;;;;;;;;;7390422;19;20121;-67
2022/07/30 00:40:21;;;;;;;0.30;0.30;;;;;;;;;;7390760;19;20129;-67
2022/07/30 00:42:47;;;;;;;0.30;0.30;;;;;;;;;;7391511;19;20145;-67
2022/07/30 00:45:13;;;;;;;0.30;0.30;;;;;;;;;;7390559;19;20152;-67
2022/07/30 00:47:39;;;;;;;0.35;0.35;;;;;;;;;;7391101;19;20121;-67
2022/07/30 00:50:06;;;;;;;0.30;0.30;;;;;;;;;;7391398;19;20113;-67
2022/07/30 00:52:33;;;;;;;0.77;0.77;;;;;;;;;;7391123;19;20435;-67
2022/07/30 00:54:59;;;;;;;0.30;0.30;;;;;;;;;;7392075;19;20844;-67
2022/07/30 00:57:26;;;;;;;0.30;0.30;;;;;;;;;;7389702;19;20598;-67
2022/07/30 00:59:51;;;;;;;0.30;0.30;;;;;;;;;;7392323;19;20117;-67
2022/07/30 01:02:16;;;;;;;0.30;0.30;;;;;;;;;;7390795;19;20481;-67
2022/07/30 01:04:42;;;;;;;1.13;0.40;;;;;;;;;;7392177;19;20144;-67
2022/07/30 01:07:07;;;;;;;0.40;0.40;;;;;;;;;;7391766;19;20149;-67
2022/07/30 01:09:32;;;;;;;0.52;0.52;;;;;;;;;;7393116;19;20145;-67
2022/07/30 01:11:57;;;;;;;1.02;0.52;;;;;;;;;;7390164;19;20239;-67
2022/07/30 01:14:23;;;;;;;0.40;0.40;;;;;;;;;;7389800;19;20105;-67
2022/07/30 01:16:48;;;;;;;0.30;0.30;;;;;;;;;;7388161;19;20124;-67
2022/07/30 01:22:27;;;;;;;0.40;0.40;;;;;;;;;;7389697;19;20159;-67
2022/07/30 01:24:57;;;;;;;0.30;0.30;;;;;;;;;;7389247;19;20178;-67
2022/07/30 01:27:24;;;;;;;0.30;0.30;;;;;;;;;;7392026;19;20125;-67
2022/07/30 01:29:51;;;;;;;0.30;0.30;;;;;;;;;;7387976;19;20121;-67
2022/07/30 01:32:21;;;;;;;0.30;0.30;;;;;;;;;;7389381;19;20500;-67
2022/07/30 01:34:46;;;;;;;0.30;0.30;;;;;;;;;;7389101;19;20162;-67
2022/07/30 01:37:12;;;;;;;0.30;0.30;;;;;;;;;;7388620;19;20152;-67
2022/07/30 01:39:38;;;;;;;0.30;0.30;;;;;;;;;;7389418;19;20164;-67
2022/07/30 01:42:06;;;;;;;0.30;0.30;;;;;;;;;;7388197;19;20208;-67
2022/07/30 01:44:31;;;;;;;0.30;0.30;;;;;;;;;;7387653;19;20125;-67
2022/07/30 01:46:57;;;;;;;0.28;0.28;;;;;;;;;;7390297;19;20700;-67
2022/07/30 01:49:23;;;;;;;0.30;0.30;;;;;;;;;;7388966;19;20113;-67
2022/07/30 01:51:49;;;;;;;0.30;0.30;;;;;;;;;;7388662;19;20157;-67
2022/07/30 01:54:17;;;;;;;0.32;0.32;;;;;;;;;;7388052;19;20113;-67
2022/07/30 01:56:43;;;;;;;0.30;0.30;;;;;;;;;;7388308;19;20125;-67
2022/07/30 01:59:09;;;;;;;0.30;0.30;;;;;;;;;;7388419;19;20117;-67
2022/07/30 02:01:34;;;;;;;0.30;0.30;;;;;;;;;;7387073;19;20156;-67
2022/07/30 02:04:01;;;;;;;0.30;0.30;;;;;;;;;;7389610;19;20495;-67
2022/07/30 02:06:38;;;;;;;0.30;0.30;;;;;;;;;;7389677;19;20113;-67
2022/07/30 02:09:05;;;;;;;0.30;0.30;;;;;;;;;;7385005;19;20135;-67
2022/07/30 02:14:23;;;;;;;0.57;0.57;;;;;;;;;;7389247;19;20196;-67
2022/07/30 02:16:52;;;;;;;0.30;0.30;;;;;;;;;;7387846;19;20152;-66
2022/07/30 02:19:18;;;;;;;0.40;0.40;;;;;;;;;;7389134;19;20133;-67
2022/07/30 02:21:47;;;;;;;0.30;0.30;;;;;;;;;;7388384;19;20153;-67
2022/07/30 02:24:15;;;;;;;0.35;0.35;;;;;;;;;;7388033;19;20128;-67
2022/07/30 02:26:42;;;;;;;0.82;0.82;;;;;;;;;;7388381;19;20173;-67
2022/07/30 02:29:08;;;;;;;0.20;0.20;;;;;;;;;;7388526;19;20142;-66
2022/07/30 02:31:34;;;;;;;0.30;0.30;;;;;;;;;;7387101;19;20173;-67
2022/07/30 02:34:02;;;;;;;0.30;0.30;;;;;;;;;;7388194;19;20136;-67
2022/07/30 02:36:28;;;;;;;0.30;0.30;;;;;;;;;;7387897;19;20226;-65
2022/07/30 02:38:55;;;;;;;0.30;0.30;;;;;;;;;;7388477;19;20155;-66
2022/07/30 02:41:21;;;;;;;0.40;0.40;;;;;;;;;;7389778;19;20152;-67
2022/07/30 02:43:48;;;;;;;0.85;0.85;;;;;;;;;;7393526;19;20616;-67
2022/07/30 02:46:16;;;;;;;0.30;0.30;;;;;;;;;;7395096;19;20122;-67
2022/07/30 02:48:43;;;;;;;0.30;0.30;;;;;;;;;;7396244;19;20647;-66
2022/07/30 02:51:09;;;;;;;0.30;0.30;;;;;;;;;;7395920;19;20117;-67
2022/07/30 02:53:36;;;;;;;0.30;0.30;;;;;;;;;;7394474;19;20125;-67
2022/07/30 02:56:02;;;;;;;0.50;0.50;;;;;;;;;;7394391;19;20311;-67
2022/07/30 02:58:29;;;;;;;0.52;0.52;;;;;;;;;;7395538;19;20151;-67
2022/07/30 03:00:55;;;;;;;0.30;0.30;;;;;;;;;;7395664;19;20587;-67
2022/07/30 03:03:27;;;;;;;0.30;0.30;;;;;;;;;;7394865;19;20154;-67
2022/07/30 03:05:54;;;;;;;0.30;0.30;;;;;;;;;;7393662;19;20129;-67
2022/07/30 03:08:19;;;;;;;0.20;0.20;;;;;;;;;;7394675;19;20121;-67
2022/07/30 03:10:46;;;;;;;0.43;0.43;;;;;;;;;;7394638;19;20113;-67
2022/07/30 03:13:12;;;;;;;0.30;0.30;;;;;;;;;;7392769;19;20156;-67
2022/07/30 03:15:43;;;;;;;0.30;0.30;;;;;;;;;;7395019;19;20189;-67
2022/07/30 03:18:11;;;;;;;0.40;0.40;;;;;;;;;;7392118;19;20125;-67
2022/07/30 03:20:37;;;;;;;0.32;0.32;;;;;;;;;;7393460;19;20201;-66
2022/07/30 03:23:03;;;;;;;0.30;0.30;;;;;;;;;;7393074;19;20180;-67
2022/07/30 03:25:29;;;;;;;0.30;0.30;;;;;;;;;;7393711;19;20802;-67
2022/07/30 03:27:58;;;;;;;0.20;0.20;;;;;;;;;;7394633;19;20497;-67
2022/07/30 03:30:25;;;;;;;0.30;0.30;;;;;;;;;;7394900;19;20106;-67
2022/07/30 03:32:52;;;;;;;0.30;0.30;;;;;;;;;;7392031;19;20152;-67
2022/07/30 03:35:20;;;;;;;0.30;0.30;;;;;;;;;;7392514;19;20475;-67
2022/07/30 03:37:46;;;;;;;0.30;0.30;;;;;;;;;;7391028;19;20167;-67
2022/07/30 03:40:12;;;;;;;0.30;0.30;;;;;;;;;;7393715;19;20117;-67
2022/07/30 03:42:38;;;;;;;0.30;0.30;;;;;;;;;;7392122;19;20141;-67
2022/07/30 03:45:05;;;;;;;0.30;0.30;;;;;;;;;;7392253;19;20113;-66
2022/07/30 03:47:36;;;;;;;0.40;0.40;;;;;;;;;;7393377;19;20599;-67
2022/07/30 03:50:02;;;;;;;0.30;0.30;;;;;;;;;;7394056;19;20124;-67
2022/07/30 03:52:28;;;;;;;0.30;0.30;;;;;;;;;;7392406;19;20256;-67
2022/07/30 03:54:53;;;;;;;0.40;0.40;;;;;;;;;;7392944;19;20141;-66
2022/07/30 03:57:18;;;;;;;0.30;0.30;;;;;;;;;;7392514;19;20123;-64
2022/07/30 03:59:45;;;;;;;0.30;0.30;;;;;;;;;;7393131;19;20155;-67
2022/07/30 04:02:11;;;;;;;0.30;0.30;;;;;;;;;;7390151;19;20172;-67
2022/07/30 04:04:40;;;;;;;0.30;0.30;;;;;;;;;;7392247;19;20117;-67
2022/07/30 04:07:06;;;;;;;0.30;0.30;;;;;;;;;;7394648;19;20141;-67
2022/07/30 04:09:31;;;;;;;0.30;0.30;;;;;;;;;;7391422;19;20113;-67
2022/07/30 04:11:57;;;;;;;0.30;0.30;;;;;;;;;;7392698;19;20149;-67
2022/07/30 04:14:22;;;;;;;0.30;0.30;;;;;;;;;;7393309;19;20147;-67
2022/07/30 04:16:58;;;;;;;0.30;0.30;;;;;;;;;;7391969;19;20150;-66
2022/07/30 04:19:49;;;;;;;0.30;0.30;;;;;;;;;;7392271;19;20586;-66
2022/07/30 04:22:16;;;;;;;0.30;0.30;;;;;;;;;;7391529;19;20635;-66
2022/07/30 04:24:43;;;;;;;0.30;0.30;;;;;;;;;;7391859;19;20125;-67
2022/07/30 04:27:08;;;;;;;0.40;0.40;;;;;;;;;;7391659;19;20142;-67
2022/07/30 04:29:34;;;;;;;0.30;0.30;;;;;;;;;;7391218;19;20121;-67
2022/07/30 04:31:59;;;;;;;0.50;0.50;;;;;;;;;;7392119;19;20151;-66
2022/07/30 04:34:25;;;;;;;0.30;0.30;;;;;;;;;;7390214;19;20113;-67
2022/07/30 04:36:50;;;;;;;0.43;0.43;;;;;;;;;;7395665;19;20117;-68
2022/07/30 04:39:15;;;;;;;0.30;0.30;;;;;;;;;;7393788;19;20125;-67
2022/07/30 04:41:40;;;;;;;0.30;0.30;;;;;;;;;;7391666;19;20149;-68
2022/07/30 16:39:10;;;;;;;0.30;0.30;;;;;;;;;;7390206;19;20196;-70
2022/07/30 16:41:36;;;;;;;0.52;0.52;;;;;;;;;;7392787;19;20360;-70
2022/07/30 16:44:02;;;;;;;0.30;0.30;;;;;;;;;;7390013;19;20135;-69
2022/07/30 16:46:28;;;;;;;0.20;0.20;;;;;;;;;;7391440;19;20148;-70
2022/07/30 16:48:53;;;;;;;0.40;0.40;;;;;;;;;;7392151;19;20141;-70
2022/07/30 16:51:19;;;;;;;0.40;0.40;;;;;;;;;;7392749;19;20611;-69
2022/07/30 16:53:44;;;;;;;0.30;0.30;;;;;;;;;;7390782;19;20129;-70
2022/07/30 16:56:10;;;;;;;0.45;0.45;;;;;;;;;;7393019;19;21008;-69
2022/07/30 16:58:35;;;;;;;0.40;0.40;;;;;;;;;;7393773;19;20620;-70
2022/07/30 17:01:00;;;;;;;0.40;0.40;;;;;;;;;;7391070;19;20144;-69
2022/07/30 17:03:26;;;;;;;0.30;0.30;;;;;;;;;;7389466;19;20493;-69
2022/07/30 17:05:52;;;;;;;0.50;0.50;;;;;;;;;;7389641;19;20121;-70
2022/07/30 17:08:18;;;;;;;2.83;0.60;;;;;;;;;;7390762;19;20658;-70
2022/07/30 17:10:44;;;;;;;1.10;0.88;;;;;;;;;;7390994;19;20129;-70
2022/07/30 17:13:09;;;;;;;0.60;0.60;;;;;;;;;;7388923;19;20173;-69
2022/07/30 17:15:34;;;;;;;0.60;0.60;;;;;;;;;;7391973;19;20504;-69
2022/07/30 17:18:00;;;;;;;0.40;0.40;;;;;;;;;;7392765;19;20154;-69
2022/07/30 17:20:26;;;;;;;0.60;0.60;;;;;;;;;;7393038;19;20574;-70
2022/07/30 17:22:54;;;;;;;0.40;0.40;;;;;;;;;;7388726;19;20148;-70
2022/07/30 17:25:19;;;;;;;0.98;0.52;;;;;;;;;;7391642;19;20335;-69
2022/07/30 17:27:44;;;;;;;0.52;0.52;;;;;;;;;;7391696;19;20553;-70
2022/07/30 17:30:10;;;;;;;0.40;0.40;;;;;;;;;;7392007;19;20117;-69
2022/07/30 17:32:35;;;;;;;0.50;0.50;;;;;;;;;;7389390;19;20157;-70
2022/07/30 17:35:01;;;;;;;0.30;0.30;;;;;;;;;;7388936;19;20137;-69
2022/07/30 17:37:26;;;;;;;0.40;0.40;;;;;;;;;;7391500;19;20776;-70
2022/07/30 17:39:51;;;;;;;0.30;0.30;;;;;;;;;;7392170;19;20121;-69
2022/07/30 17:42:17;;;;;;;0.65;0.65;;;;;;;;;;7387968;19;20626;-69
2022/07/30 17:44:42;;;;;;;0.40;0.40;;;;;;;;;;7388044;19;20116;-69
2022/07/30 17:47:08;;;;;;;0.30;0.30;;;;;;;;;;7392288;19;20125;-69
2022/07/30 17:49:34;;;;;;;0.40;0.40;;;;;;;;;;7390721;19;20595;-70
2022/07/30 17:51:59;;;;;;;0.35;0.35;;;;;;;;;;7387934;19;20152;-69
2022/07/30 17:54:25;;;;;;;0.38;0.38;;;;;;;;;;7387449;19;20117;-69
2022/07/30 17:56:50;;;;;;;0.60;0.60;;;;;;;;;;7390011;19;20128;-69
2022/07/30 17:59:15;;;;;;;0.32;0.32;;;;;;;;;;7390852;19;20180;-69
2022/07/30 18:01:40;;;;;;;0.30;0.30;;;;;;;;;;7387109;19;20263;-70
2022/07/30 18:04:06;;;;;;;0.50;0.50;;;;;;;;;;7389639;19;20118;-69
2022/07/30 18:06:31;;;;;;;0.30;0.30;;;;;;;;;;7387977;19;20122;-69
2022/07/30 18:08:56;;;;;;;0.68;0.68;;;;;;;;;;7390541;19;20149;-69
2022/07/30 18:11:22;;;;;;;0.40;0.40;;;;;;;;;;7393283;19;20383;-69
2022/07/30 18:13:47;;;;;;;0.28;0.28;;;;;;;;;;7395403;19;20479;-69
2022/07/30 18:16:13;;;;;;;0.57;0.57;;;;;;;;;;7399043;19;20129;-69
2022/07/30 18:18:38;;;;;;;0.30;0.30;;;;;;;;;;7397829;19;20136;-70
2022/07/30 18:21:04;;;;;;;0.30;0.30;;;;;;;;;;7396152;19;20147;-70
2022/07/30 18:23:30;;;;;;;0.40;0.40;;;;;;;;;;7393374;19;20148;-70
2022/07/30 18:25:55;;;;;;;0.73;0.73;;;;;;;;;;7395835;19;20133;-70
2022/07/30 18:28:21;;;;;;;0.30;0.30;;;;;;;;;;7395735;19;20128;-69
2022/07/30 18:30:46;;;;;;;0.57;0.57;;;;;;;;;;7398092;19;20394;-69
2022/07/30 18:33:12;;;;;;;0.40;0.40;;;;;;;;;;7393920;19;20499;-69
2022/07/30 18:35:37;;;;;;;0.93;0.93;;;;;;;;;;7391146;19;20138;-69
2022/07/30 18:38:02;;;;;;;0.40;0.40;;;;;;;;;;7397765;19;20121;-69
2022/07/30 18:40:28;;;;;;;0.43;0.43;;;;;;;;;;7397681;19;20181;-70
2022/07/30 18:42:53;;;;;;;0.50;0.50;;;;;;;;;;7393937;19;20149;-69
2022/07/30 18:45:18;;;;;;;0.38;0.38;;;;;;;;;;7395757;19;20532;-70
2022/07/30 18:47:45;;;;;;;0.40;0.40;;;;;;;;;;7397622;19;20140;-69
2022/07/30 18:50:12;;;;;;;0.47;0.47;;;;;;;;;;7395355;19;20164;-70
2022/07/30 18:52:38;;;;;;;0.30;0.30;;;;;;;;;;7393829;19;20159;-69
2022/07/30 18:55:05;;;;;;;0.52;0.52;;;;;;;;;;7395467;19;20117;-69
2022/07/30 18:57:30;;;;;;;0.73;0.73;;;;;;;;;;7396494;19;20121;-69
2022/07/30 18:59:55;;;;;;;0.40;0.40;;;;;;;;;;7394253;19;20128;-69
2022/07/30 19:02:24;;;;;;;0.30;0.30;;;;;;;;;;7394940;19;20204;-70
2022/07/30 19:04:52;;;;;;;0.50;0.50;;;;;;;;;;7394222;19;20132;-68
2022/07/30 19:07:18;;;;;;;0.47;0.47;;;;;;;;;;7394950;19;20504;-69
2022/07/30 19:09:44;;;;;;;0.50;0.50;;;;;;;;;;7394559;19;20137;-69
2022/07/30 19:12:10;;;;;;;0.30;0.30;;;;;;;;;;7395119;19;20629;-69
2022/07/30 19:14:35;;;;;;;0.30;0.30;;;;;;;;;;7394732;19;20120;-69
2022/07/30 19:17:01;;;;;;;0.55;0.55;;;;;;;;;;7394170;19;20138;-70
2022/07/30 19:19:27;;;;;;;0.30;0.30;;;;;;;;;;7396192;19;20737;-69
2022/07/30 19:21:52;;;;;;;0.30;0.30;;;;;;;;;;7395031;19;20192;-68
2022/07/30 19:24:17;;;;;;;0.40;0.40;;;;;;;;;;7393047;19;20201;-69
2022/07/30 19:26:43;;;;;;;0.30;0.30;;;;;;;;;;7395778;19;20125;-68
2022/07/30 19:29:08;;;;;;;0.32;0.32;;;;;;;;;;7395587;19;20113;-69
2022/07/30 19:31:34;;;;;;;0.40;0.40;;;;;;;;;;7394580;19;20169;-69
2022/07/30 19:33:59;;;;;;;0.35;0.35;;;;;;;;;;7394812;19;20466;-69
2022/07/30 19:36:26;;;;;;;0.40;0.40;;;;;;;;;;7393948;19;20117;-69
2022/07/30 19:38:51;;;;;;;0.35;0.35;;;;;;;;;;7397357;19;20147;-68
2022/07/30 19:41:16;;;;;;;0.40;0.40;;;;;;;;;;7393527;19;20820;-69
2022/07/30 19:43:42;;;;;;;0.50;0.50;;;;;;;;;;7393005;19;20117;-69
2022/07/30 19:46:07;;;;;;;0.40;0.40;;;;;;;;;;7393547;19;20129;-69
2022/07/30 19:48:36;;;;;;;0.30;0.30;;;;;;;;;;7394402;19;20129;-69
2022/07/30 19:51:02;;;;;;;0.30;0.30;;;;;;;;;;7393686;19;20138;-69
2022/07/30 19:53:28;;;;;;;0.90;0.90;;;;;;;;;;7395695;19;20121;-69
2022/07/30 19:55:53;;;;;;;0.40;0.40;;;;;;;;;;7392013;19;20793;-69
2022/07/30 19:58:18;;;;;;;0.40;0.40;;;;;;;;;;7395463;19;20198;-69
2022/07/30 20:00:44;;;;;;;0.30;0.30;;;;;;;;;;7394625;19;20124;-69
2022/07/30 20:03:10;;;;;;;0.30;0.30;;;;;;;;;;7390795;19;20141;-69
2022/07/30 20:05:35;;;;;;;0.40;0.40;;;;;;;;;;7391997;19;20509;-69
2022/07/30 20:08:00;;;;;;;0.30;0.30;;;;;;;;;;7394399;19;20180;-70
2022/07/30 20:10:26;;;;;;;0.63;0.63;;;;;;;;;;7393904;19;20143;-69
2022/07/30 20:12:51;;;;;;;0.30;0.30;;;;;;;;;;7392995;19;20603;-69
2022/07/30 20:15:16;;;;;;;0.32;0.32;;;;;;;;;;7393181;19;20140;-69
2022/07/30 20:17:42;;;;;;;0.30;0.30;;;;;;;;;;7392661;19;20145;-69
2022/07/30 20:20:08;;;;;;;0.38;0.38;;;;;;;;;;7394882;19;20121;-69
2022/07/30 20:22:33;;;;;;;0.38;0.38;;;;;;;;;;7390384;19;20175;-69
2022/07/30 20:24:59;;;;;;;0.50;0.50;;;;;;;;;;7392507;19;20124;-69
2022/07/30 20:27:24;;;;;;;0.63;0.63;;;;;;;;;;7391072;19;20148;-69
2022/07/30 20:29:49;;;;;;;0.30;0.30;;;;;;;;;;7393814;19;20591;-69
2022/07/30 20:32:14;;;;;;;0.30;0.30;;;;;;;;;;7392140;19;20152;-69
2022/07/30 20:34:40;;;;;;;0.35;0.35;;;;;;;;;;7392635;19;20125;-69
2022/07/30 20:37:05;;;;;;;1.38;0.90;;;;;;;;;;7390402;19;20134;-69
2022/07/30 20:39:30;;;;;;;0.30;0.30;;;;;;;;;;7393577;19;20117;-69
2022/07/30 20:42:08;;;;;;;0.65;0.65;;;;;;;;;;7389245;19;20140;-69
2022/07/30 20:44:41;;;;;;;0.30;0.30;;;;;;;;;;7392903;19;20124;-69
2022/07/30 20:47:07;;;;;;;0.32;0.32;;;;;;;;;;7392244;19;20124;-69
2022/07/30 20:49:33;;;;;;;0.30;0.30;;;;;;;;;;7391728;19;20543;-69
2022/07/30 20:51:58;;;;;;;0.43;0.43;;;;;;;;;;7391543;19;20152;-69
2022/07/30 20:54:24;;;;;;;0.38;0.38;;;;;;;;;;7392043;19;20128;-69
2022/07/30 20:56:50;;;;;;;0.63;0.63;;;;;;;;;;7390064;19;20137;-69
2022/07/30 20:59:15;;;;;;;0.30;0.30;;;;;;;;;;7390952;19;20127;-69
2022/07/30 21:01:40;;;;;;;0.30;0.30;;;;;;;;;;7390007;19;20137;-69
2022/07/30 21:04:05;;;;;;;0.57;0.57;;;;;;;;;;7390276;19;20131;-69
2022/07/30 21:06:31;;;;;;;0.47;0.47;;;;;;;;;;7390886;19;20152;-69
2022/07/30 21:08:56;;;;;;;0.30;0.30;;;;;;;;;;7392595;19;20144;-69
2022/07/30 21:11:22;;;;;;;0.50;0.50;;;;;;;;;;7392196;19;20595;-69
2022/07/30 21:13:47;;;;;;;0.30;0.30;;;;;;;;;;7391107;19;20125;-69
2022/07/30 21:16:12;;;;;;;0.57;0.57;;;;;;;;;;7393557;19;20117;-69
2022/07/30 21:18:38;;;;;;;0.47;0.47;;;;;;;;;;7390962;19;20152;-68
2022/07/30 21:21:03;;;;;;;0.68;0.68;;;;;;;;;;7391030;19;20125;-69
2022/07/30 21:23:29;;;;;;;0.38;0.38;;;;;;;;;;7389222;19;20129;-68
2022/07/30 21:25:54;;;;;;;0.60;0.60;;;;;;;;;;7388326;19;20152;-69
2022/07/30 21:28:19;;;;;;;0.40;0.40;;;;;;;;;;7389962;19;20121;-68
2022/07/30 21:30:45;;;;;;;1.02;0.95;;;;;;;;;;7391878;19;20499;-68
2022/07/30 21:33:10;;;;;;;0.45;0.45;;;;;;;;;;7387952;19;20163;-69
2022/07/30 21:35:36;;;;;;;0.40;0.40;;;;;;;;;;7390479;19;20121;-69
2022/07/30 21:38:01;;;;;;;0.30;0.30;;;;;;;;;;7391569;19;20128;-68
2022/07/30 21:40:28;;;;;;;0.30;0.30;;;;;;;;;;7389735;19;20460;-69
2022/07/30 21:42:53;;;;;;;1.55;1.20;;;;;;;;;;7389525;19;20156;-69
2022/07/30 21:45:19;;;;;;;0.30;0.30;;;;;;;;;;7388031;19;20627;-69
2022/07/30 21:47:44;;;;;;;0.40;0.40;;;;;;;;;;7390090;19;20196;-70
2022/07/30 21:50:09;;;;;;;0.52;0.52;;;;;;;;;;7389361;19;20150;-69
2022/07/30 21:52:35;;;;;;;1.65;0.77;;;;;;;;;;7390222;19;20157;-69
2022/07/30 21:55:01;;;;;;;0.30;0.30;;;;;;;;;;7390412;19;20124;-69
2022/07/30 21:57:26;;;;;;;0.40;0.40;;;;;;;;;;7389707;19;20134;-69
2022/07/30 21:59:52;;;;;;;0.30;0.30;;;;;;;;;;7390150;19;20140;-69
2022/07/30 22:02:17;;;;;;;0.50;0.50;;;;;;;;;;7387779;19;20149;-69
2022/07/30 22:04:42;;;;;;;0.63;0.50;;;;;;;;;;7387300;19;20204;-69
2022/07/30 22:07:08;;;;;;;0.35;0.35;;;;;;;;;;7390985;19;20139;-69
2022/07/30 22:09:33;;;;;;;0.40;0.40;;;;;;;;;;7390487;19;20117;-70
2022/07/30 22:11:59;;;;;;;0.40;0.40;;;;;;;;;;7389119;19;20508;-69
2022/07/30 22:14:24;;;;;;;0.40;0.40;;;;;;;;;;7388820;19;20138;-69
2022/07/30 22:16:49;;;;;;;0.35;0.35;;;;;;;;;;7390497;19;20206;-69
2022/07/30 22:19:15;;;;;;;0.40;0.40;;;;;;;;;;7392124;19;20132;-69
2022/07/30 22:21:41;;;;;;;0.50;0.50;;;;;;;;;;7389795;19;20160;-69
2022/07/30 22:24:07;;;;;;;0.40;0.40;;;;;;;;;;7388944;19;20121;-69
2022/07/30 22:26:32;;;;;;;0.30;0.30;;;;;;;;;;7389178;19;20236;-69
2022/07/30 22:28:57;;;;;;;0.30;0.30;;;;;;;;;;7391111;19;20492;-69
2022/07/30 22:31:22;;;;;;;0.30;0.30;;;;;;;;;;7390191;19;20133;-69
2022/07/30 22:33:48;;;;;;;0.40;0.40;;;;;;;;;;7389644;19;20626;-69
2022/07/30 22:36:13;;;;;;;0.47;0.47;;;;;;;;;;7390684;19;20145;-69
2022/07/30 22:38:38;;;;;;;0.40;0.40;;;;;;;;;;7388902;19;20117;-69
2022/07/30 22:41:04;;;;;;;0.30;0.30;;;;;;;;;;7389129;19;20113;-70
2022/07/30 22:43:30;;;;;;;0.50;0.50;;;;;;;;;;7388260;19;20140;-69
2022/07/30 22:45:55;;;;;;;0.50;0.50;;;;;;;;;;7389711;19;20113;-68
2022/07/30 22:48:20;;;;;;;0.38;0.38;;;;;;;;;;7389974;19;20154;-67
2022/07/30 22:50:46;;;;;;;0.38;0.38;;;;;;;;;;7389808;19;20125;-71
2022/07/30 22:53:11;;;;;;;0.30;0.30;;;;;;;;;;7387300;19;20149;-69
2022/07/30 22:55:37;;;;;;;0.40;0.40;;;;;;;;;;7388287;19;20121;-69
2022/07/30 22:58:02;;;;;;;0.40;0.40;;;;;;;;;;7388149;19;20135;-69
2022/07/30 23:00:27;;;;;;;0.95;0.95;;;;;;;;;;7395999;19;20117;-69
2022/07/30 23:02:53;;;;;;;0.50;0.50;;;;;;;;;;7392265;19;20513;-69
2022/07/30 23:05:18;;;;;;;0.40;0.40;;;;;;;;;;7393118;19;20129;-70
2022/07/30 23:07:45;;;;;;;0.82;0.82;;;;;;;;;;7395270;19;20125;-69
2022/07/30 23:10:13;;;;;;;0.40;0.40;;;;;;;;;;7395345;19;20124;-69
2022/07/30 23:12:42;;;;;;;4.32;1.30;;;;;;;;;;7393491;19;20528;-69
2022/07/30 23:15:09;;;;;;;0.30;0.30;;;;;;;;;;7393439;19;20125;-69
2022/07/30 23:17:35;;;;;;;0.30;0.30;;;;;;;;;;7395536;19;20121;-69
2022/07/30 23:20:02;;;;;;;0.77;0.77;;;;;;;;;;7393686;19;20124;-69
2022/07/30 23:22:28;;;;;;;0.50;0.50;;;;;;;;;;7395141;19;20157;-69
2022/07/30 23:24:53;;;;;;;0.60;0.60;;;;;;;;;;7395953;19;20180;-69
2022/07/30 23:27:19;;;;;;;0.28;0.28;;;;;;;;;;7396287;19;20133;-69
2022/07/30 23:29:44;;;;;;;0.25;0.25;;;;;;;;;;7394113;19;20120;-69
2022/07/30 23:32:09;;;;;;;0.40;0.40;;;;;;;;;;7394980;19;20511;-70
2022/07/30 23:34:35;;;;;;;0.40;0.40;;;;;;;;;;7394650;19;20146;-69
2022/07/30 23:37:04;;;;;;;0.40;0.40;;;;;;;;;;7397445;19;20202;-69
2022/07/30 23:39:29;;;;;;;0.30;0.30;;;;;;;;;;7393510;19;20128;-69
2022/07/30 23:41:54;;;;;;;0.45;0.45;;;;;;;;;;7391324;19;20149;-69
2022/07/30 23:44:19;;;;;;;0.30;0.30;;;;;;;;;;7393639;19;20117;-68
2022/07/30 23:46:45;;;;;;;0.40;0.40;;;;;;;;;;7394140;19;20120;-69
2022/07/30 23:49:11;;;;;;;0.55;0.55;;;;;;;;;;7395436;19;20606;-69
2022/07/30 23:51:36;;;;;;;0.35;0.35;;;;;;;;;;7390953;19;20149;-70
2022/07/30 23:54:02;;;;;;;0.30;0.30;;;;;;;;;;7393082;19;20117;-69
2022/07/30 23:56:27;;;;;;;0.50;0.50;;;;;;;;;;7396793;19;20145;-69
2022/07/30 23:58:53;;;;;;;0.30;0.30;;;;;;;;;;7392171;19;20181;-70
